Afton, CA

4:46 AM PDT on October 24, 2014 (GMT -0700)
Behring Ranch | Change Station
CLOSE
Current Station
Personal Weather Station
Location: Colusa, CA
Elevation: 52 ft
Nearby Weather Stations

Elev 52 ft 39.34 °N, 121.93 °W | Updated 32 seconds ago

Fog
Fog
49.6 °F
Feels Like 50 °F
N
0.0
Wind Variable Wind from WNW

Today
High -- | Low -- °F
--% Chance of Precip.
Yesterday
High -- | Low -- °F
Precip. -- in
7:27 AM 6:16 PM
New Moon, 0% visible
Pressure 29.99 in
Visibility 0.2 miles
Clouds
Windchill 50 °F
Dew Point 48 °F
Humidity 94%
Rainfall 0.00 in
Snow Depth Not available.
UV Not available.
Pollen 3.50 out of 12
Ozone Good
PM2.5 Moderate
Flu Activity Sporadic
METAR KOVE 241053Z AUTO 00000KT 1/4SM FG VV001 13/12 A2999 RMK AO2 SLP156 T01280122 $

More Conditions Fewer Conditions

Pressure 29.99 in
Visibility 0.2 miles
Clouds
Windchill 50 °F
Dew Point 48 °F
Humidity 94%
Rainfall 0.00 in
Snow Depth Not available.
UV Not available.
Pollen 3.50 out of 12
Ozone Good
PM2.5 Moderate
Flu Activity Sporadic
METAR KOVE 241053Z AUTO 00000KT 1/4SM FG VV001 13/12 A2999 RMK AO2 SLP156 T01280122 $

More Conditions Fewer Conditions

10-Day Weather Forecast

Almanac

Astronomy

Oct. 24, 2014 Rise Set
Actual Time 7:27 AM PDT 6:16 PM PDT
Civil Twilight 6:59 AM PDT 6:43 PM PDT
Nautical Twilight 6:28 AM PDT 7:14 PM PDT
Astronomical Twilight 5:57 AM PDT 7:45 PM PDT
Moon 8:11 AM PDT 6:59 PM PDT
Length of Visible Light 11h 43m
Length of Day
10h 48m
Tomorrow will be 2m 23s shorter.
New Moon, 0% of the Moon is Illuminated
Today
New Moon
Oct 30
First Quarter
Nov 6
Full
Nov 14
Last Quarter
Nov 22
New

Today's Extremes

State Highs State Lows

Community

WunderPhotos

Upload Photos

1,764,526 photos uploaded!

Nearby

Air Quality

  Air Quality AQ Index Pollutant
Yesterday Good
OZONE
Yesterday Good
PM2.5
Current Moderate
PM2.5
Current Good
OZONE
Friday Good
OZONE
Saturday Good
OZONE

Snow Depth

Station Depth Elevation
CSS Lab 2 in 6900 ft
Independence Creek 0 in 6500 ft
Squaw Valley 0 in 8200 ft
Ward Creek #3 9 in 6750 ft
Tahoe City Cross 0 in 6750 ft

Earthquake Activity

City Distance Mag. Time & Date
No recent earthquake activity has been reported nearby.
Minimum magnitude displayed is 2.5.

Coastal Water Temperatures

Place Temperature
No Stations Reporting

Nearby Weather Stations